sensor_id;sensor_type;location;lat;lon;timestamp;P1;durP1;ratioP1;P2;durP2;ratioP2
39308;SDS011;26019;47.510;19.122;2023-04-25T00:04:28;1.55;;;1.38;;
39308;SDS011;26019;47.510;19.122;2023-04-25T00:14:32;2.55;;;1.70;;
39308;SDS011;26019;47.510;19.122;2023-04-25T00:24:44;2.53;;;1.60;;
39308;SDS011;26019;47.510;19.122;2023-04-25T00:34:49;2.50;;;2.30;;
39308;SDS011;26019;47.510;19.122;2023-04-25T00:44:52;2.20;;;2.00;;
39308;SDS011;26019;47.510;19.122;2023-04-25T00:54:54;2.50;;;2.30;;
39308;SDS011;26019;47.510;19.122;2023-04-25T01:04:56;2.60;;;2.40;;
39308;SDS011;26019;47.510;19.122;2023-04-25T01:14:59;4.07;;;2.65;;
39308;SDS011;26019;47.510;19.122;2023-04-25T01:25:01;4.65;;;2.50;;
39308;SDS011;26019;47.510;19.122;2023-04-25T01:35:19;4.33;;;2.70;;
39308;SDS011;26019;47.510;19.122;2023-04-25T01:45:21;3.53;;;2.80;;
39308;SDS011;26019;47.510;19.122;2023-04-25T01:55:23;4.95;;;3.20;;
39308;SDS011;26019;47.510;19.122;2023-04-25T02:05:25;2.67;;;2.30;;
39308;SDS011;26019;47.510;19.122;2023-04-25T02:15:27;3.88;;;3.30;;
39308;SDS011;26019;47.510;19.122;2023-04-25T02:25:29;3.58;;;2.97;;
39308;SDS011;26019;47.510;19.122;2023-04-25T02:35:43;4.95;;;2.83;;
39308;SDS011;26019;47.510;19.122;2023-04-25T02:45:46;4.20;;;2.50;;
39308;SDS011;26019;47.510;19.122;2023-04-25T02:55:48;4.23;;;2.00;;
39308;SDS011;26019;47.510;19.122;2023-04-25T03:05:56;2.73;;;1.70;;
39308;SDS011;26019;47.510;19.122;2023-04-25T03:16:01;2.60;;;2.40;;
39308;SDS011;26019;47.510;19.122;2023-04-25T03:26:03;5.78;;;2.83;;
39308;SDS011;26019;47.510;19.122;2023-04-25T03:36:06;3.10;;;2.70;;
39308;SDS011;26019;47.510;19.122;2023-04-25T03:56:11;3.70;;;2.60;;
39308;SDS011;26019;47.510;19.122;2023-04-25T04:06:13;3.57;;;2.83;;
39308;SDS011;26019;47.510;19.122;2023-04-25T04:16:15;3.75;;;3.22;;
39308;SDS011;26019;47.510;19.122;2023-04-25T04:26:16;3.35;;;2.97;;
39308;SDS011;26019;47.510;19.122;2023-04-25T04:46:23;4.38;;;3.10;;
39308;SDS011;26019;47.510;19.122;2023-04-25T05:06:33;5.00;;;3.58;;
39308;SDS011;26019;47.510;19.122;2023-04-25T05:16:35;5.40;;;3.28;;
39308;SDS011;26019;47.510;19.122;2023-04-25T05:26:42;4.60;;;3.33;;
39308;SDS011;26019;47.510;19.122;2023-04-25T05:36:44;4.50;;;3.28;;
39308;SDS011;26019;47.510;19.122;2023-04-25T05:46:49;7.18;;;3.70;;
39308;SDS011;26019;47.510;19.122;2023-04-25T05:56:51;4.90;;;3.72;;
39308;SDS011;26019;47.510;19.122;2023-04-25T06:06:53;4.32;;;3.90;;
39308;SDS011;26019;47.510;19.122;2023-04-25T06:16:54;6.75;;;4.80;;
39308;SDS011;26019;47.510;19.122;2023-04-25T06:26:57;7.72;;;5.10;;
39308;SDS011;26019;47.510;19.122;2023-04-25T06:37:00;6.63;;;5.60;;
39308;SDS011;26019;47.510;19.122;2023-04-25T06:47:02;7.00;;;5.33;;
39308;SDS011;26019;47.510;19.122;2023-04-25T06:57:03;7.60;;;6.07;;
39308;SDS011;26019;47.510;19.122;2023-04-25T07:07:07;7.30;;;4.63;;
39308;SDS011;26019;47.510;19.122;2023-04-25T07:17:17;7.13;;;4.82;;
39308;SDS011;26019;47.510;19.122;2023-04-25T07:27:19;7.13;;;5.57;;
39308;SDS011;26019;47.510;19.122;2023-04-25T07:37:22;6.47;;;4.63;;
39308;SDS011;26019;47.510;19.122;2023-04-25T07:47:29;9.90;;;4.55;;
39308;SDS011;26019;47.510;19.122;2023-04-25T07:57:32;5.38;;;3.88;;
39308;SDS011;26019;47.510;19.122;2023-04-25T08:07:33;4.13;;;3.50;;
39308;SDS011;26019;47.510;19.122;2023-04-25T08:27:37;4.50;;;2.83;;
39308;SDS011;26019;47.510;19.122;2023-04-25T08:37:40;2.95;;;2.30;;
39308;SDS011;26019;47.510;19.122;2023-04-25T08:47:45;2.50;;;2.30;;
39308;SDS011;26019;47.510;19.122;2023-04-25T08:57:47;2.65;;;2.45;;
39308;SDS011;26019;47.510;19.122;2023-04-25T09:07:50;3.30;;;2.65;;
39308;SDS011;26019;47.510;19.122;2023-04-25T09:17:56;3.00;;;2.70;;
39308;SDS011;26019;47.510;19.122;2023-04-25T09:27:59;3.25;;;2.63;;
39308;SDS011;26019;47.510;19.122;2023-04-25T09:38:09;1.88;;;1.77;;
39308;SDS011;26019;47.510;19.122;2023-04-25T09:48:12;11.23;;;2.65;;
39308;SDS011;26019;47.510;19.122;2023-04-25T09:58:18;1.75;;;1.63;;
39308;SDS011;26019;47.510;19.122;2023-04-25T10:08:20;2.15;;;1.10;;
39308;SDS011;26019;47.510;19.122;2023-04-25T10:18:24;1.20;;;1.00;;
39308;SDS011;26019;47.510;19.122;2023-04-25T10:28:28;2.17;;;1.00;;
39308;SDS011;26019;47.510;19.122;2023-04-25T10:38:31;1.58;;;1.33;;
39308;SDS011;26019;47.510;19.122;2023-04-25T10:48:38;1.95;;;0.73;;
39308;SDS011;26019;47.510;19.122;2023-04-25T10:58:49;3.58;;;1.63;;
39308;SDS011;26019;47.510;19.122;2023-04-25T11:08:54;3.67;;;0.95;;
39308;SDS011;26019;47.510;19.122;2023-04-25T11:18:59;3.20;;;0.75;;
39308;SDS011;26019;47.510;19.122;2023-04-25T11:29:01;1.55;;;1.30;;
39308;SDS011;26019;47.510;19.122;2023-04-25T11:39:03;0.47;;;0.47;;
39308;SDS011;26019;47.510;19.122;2023-04-25T11:49:06;0.60;;;0.60;;
39308;SDS011;26019;47.510;19.122;2023-04-25T11:59:13;1.98;;;0.80;;
39308;SDS011;26019;47.510;19.122;2023-04-25T12:09:17;0.65;;;0.50;;
39308;SDS011;26019;47.510;19.122;2023-04-25T12:19:22;0.93;;;0.40;;
39308;SDS011;26019;47.510;19.122;2023-04-25T12:29:25;0.73;;;0.73;;
39308;SDS011;26019;47.510;19.122;2023-04-25T12:39:35;0.40;;;0.40;;
39308;SDS011;26019;47.510;19.122;2023-04-25T12:49:37;3.30;;;1.42;;
39308;SDS011;26019;47.510;19.122;2023-04-25T12:59:51;2.70;;;0.68;;
39308;SDS011;26019;47.510;19.122;2023-04-25T13:09:54;1.77;;;0.80;;
39308;SDS011;26019;47.510;19.122;2023-04-25T13:19:58;1.50;;;1.40;;
39308;SDS011;26019;47.510;19.122;2023-04-25T13:30:03;1.20;;;0.63;;
39308;SDS011;26019;47.510;19.122;2023-04-25T13:40:09;0.60;;;0.60;;
39308;SDS011;26019;47.510;19.122;2023-04-25T13:50:13;1.48;;;0.85;;
39308;SDS011;26019;47.510;19.122;2023-04-25T14:00:17;4.20;;;1.50;;
39308;SDS011;26019;47.510;19.122;2023-04-25T14:10:20;1.90;;;0.88;;
39308;SDS011;26019;47.510;19.122;2023-04-25T14:20:22;1.02;;;0.73;;
39308;SDS011;26019;47.510;19.122;2023-04-25T14:30:26;1.00;;;0.60;;
39308;SDS011;26019;47.510;19.122;2023-04-25T14:40:29;1.30;;;1.20;;
39308;SDS011;26019;47.510;19.122;2023-04-25T15:01:08;0.65;;;0.57;;
39308;SDS011;26019;47.510;19.122;2023-04-25T15:21:16;1.95;;;1.00;;
39308;SDS011;26019;47.510;19.122;2023-04-25T15:31:31;5.60;;;1.10;;
39308;SDS011;26019;47.510;19.122;2023-04-25T15:41:35;1.83;;;1.15;;
39308;SDS011;26019;47.510;19.122;2023-04-25T15:51:42;3.70;;;1.60;;
39308;SDS011;26019;47.510;19.122;2023-04-25T16:01:45;2.15;;;0.90;;
39308;SDS011;26019;47.510;19.122;2023-04-25T16:11:47;2.65;;;1.70;;
39308;SDS011;26019;47.510;19.122;2023-04-25T16:21:52;2.00;;;1.55;;
39308;SDS011;26019;47.510;19.122;2023-04-25T16:31:56;2.25;;;2.00;;
39308;SDS011;26019;47.510;19.122;2023-04-25T16:41:58;4.38;;;2.90;;
39308;SDS011;26019;47.510;19.122;2023-04-25T16:52:01;7.18;;;3.03;;
39308;SDS011;26019;47.510;19.122;2023-04-25T17:02:04;3.95;;;2.50;;
39308;SDS011;26019;47.510;19.122;2023-04-25T17:12:12;7.88;;;3.38;;
39308;SDS011;26019;47.510;19.122;2023-04-25T17:22:14;5.10;;;2.97;;
39308;SDS011;26019;47.510;19.122;2023-04-25T17:32:24;5.20;;;2.60;;
39308;SDS011;26019;47.510;19.122;2023-04-25T17:42:27;3.08;;;2.53;;
39308;SDS011;26019;47.510;19.122;2023-04-25T17:52:29;3.93;;;2.47;;
39308;SDS011;26019;47.510;19.122;2023-04-25T18:02:33;2.60;;;2.40;;
39308;SDS011;26019;47.510;19.122;2023-04-25T18:12:38;2.33;;;2.13;;
39308;SDS011;26019;47.510;19.122;2023-04-25T18:22:43;5.80;;;3.10;;
39308;SDS011;26019;47.510;19.122;2023-04-25T18:32:48;13.60;;;4.55;;
39308;SDS011;26019;47.510;19.122;2023-04-25T18:42:51;5.15;;;4.20;;
39308;SDS011;26019;47.510;19.122;2023-04-25T18:52:55;5.68;;;3.55;;
39308;SDS011;26019;47.510;19.122;2023-04-25T19:02:58;4.97;;;3.15;;
39308;SDS011;26019;47.510;19.122;2023-04-25T19:13:04;4.30;;;2.80;;
39308;SDS011;26019;47.510;19.122;2023-04-25T19:33:10;5.57;;;3.17;;
39308;SDS011;26019;47.510;19.122;2023-04-25T19:43:12;4.30;;;3.43;;
39308;SDS011;26019;47.510;19.122;2023-04-25T19:53:16;4.97;;;2.80;;
39308;SDS011;26019;47.510;19.122;2023-04-25T20:13:21;6.13;;;3.33;;
39308;SDS011;26019;47.510;19.122;2023-04-25T20:33:33;4.80;;;3.22;;
39308;SDS011;26019;47.510;19.122;2023-04-25T20:43:39;12.27;;;5.32;;
39308;SDS011;26019;47.510;19.122;2023-04-25T20:53:45;7.68;;;4.20;;
39308;SDS011;26019;47.510;19.122;2023-04-25T21:03:53;4.85;;;3.80;;
39308;SDS011;26019;47.510;19.122;2023-04-25T21:13:56;5.75;;;3.63;;
39308;SDS011;26019;47.510;19.122;2023-04-25T21:23:59;5.27;;;3.13;;
39308;SDS011;26019;47.510;19.122;2023-04-25T21:34:02;5.13;;;2.90;;
39308;SDS011;26019;47.510;19.122;2023-04-25T21:44:11;5.33;;;3.77;;
39308;SDS011;26019;47.510;19.122;2023-04-25T21:54:13;4.20;;;3.47;;
39308;SDS011;26019;47.510;19.122;2023-04-25T22:04:15;6.47;;;3.33;;
39308;SDS011;26019;47.510;19.122;2023-04-25T22:14:19;5.47;;;3.45;;
39308;SDS011;26019;47.510;19.122;2023-04-25T22:24:21;6.40;;;3.67;;
39308;SDS011;26019;47.510;19.122;2023-04-25T22:34:28;5.18;;;3.50;;
39308;SDS011;26019;47.510;19.122;2023-04-25T22:44:32;5.73;;;3.83;;
39308;SDS011;26019;47.510;19.122;2023-04-25T22:54:35;6.78;;;3.95;;
39308;SDS011;26019;47.510;19.122;2023-04-25T23:04:38;7.03;;;4.22;;
39308;SDS011;26019;47.510;19.122;2023-04-25T23:14:42;10.90;;;6.50;;
39308;SDS011;26019;47.510;19.122;2023-04-25T23:24:45;7.35;;;4.60;;
39308;SDS011;26019;47.510;19.122;2023-04-25T23:34:52;5.90;;;4.47;;
39308;SDS011;26019;47.510;19.122;2023-04-25T23:44:54;6.82;;;4.60;;
39308;SDS011;26019;47.510;19.122;2023-04-25T23:55:11;6.38;;;4.85;;
